sensor_id;sensor_type;location;lat;lon;timestamp;P1;durP1;ratioP1;P2;durP2;ratioP2
27833;SDS011;15200;50.570;7.244;2023-04-12T00:00:08;3.85;;;1.07;;
27833;SDS011;15200;50.570;7.244;2023-04-12T00:02:38;4.10;;;1.10;;
27833;SDS011;15200;50.570;7.244;2023-04-12T00:05:07;7.35;;;1.37;;
27833;SDS011;15200;50.570;7.244;2023-04-12T00:07:35;3.02;;;1.30;;
27833;SDS011;15200;50.570;7.244;2023-04-12T00:10:05;4.53;;;1.30;;
27833;SDS011;15200;50.570;7.244;2023-04-12T00:12:33;4.67;;;1.25;;
27833;SDS011;15200;50.570;7.244;2023-04-12T00:15:00;3.87;;;1.30;;
27833;SDS011;15200;50.570;7.244;2023-04-12T00:17:28;6.70;;;1.52;;
27833;SDS011;15200;50.570;7.244;2023-04-12T00:19:55;4.12;;;1.40;;
27833;SDS011;15200;50.570;7.244;2023-04-12T00:22:23;6.78;;;0.90;;
27833;SDS011;15200;50.570;7.244;2023-04-12T00:24:51;4.00;;;1.20;;
27833;SDS011;15200;50.570;7.244;2023-04-12T00:27:19;6.10;;;2.00;;
27833;SDS011;15200;50.570;7.244;2023-04-12T00:29:46;6.72;;;1.00;;
27833;SDS011;15200;50.570;7.244;2023-04-12T00:32:13;3.00;;;1.22;;
27833;SDS011;15200;50.570;7.244;2023-04-12T00:34:41;3.45;;;1.37;;
27833;SDS011;15200;50.570;7.244;2023-04-12T00:37:08;4.22;;;1.70;;
27833;SDS011;15200;50.570;7.244;2023-04-12T00:39:36;3.25;;;0.95;;
27833;SDS011;15200;50.570;7.244;2023-04-12T00:42:03;5.90;;;1.15;;
27833;SDS011;15200;50.570;7.244;2023-04-12T00:44:35;3.42;;;1.27;;
27833;SDS011;15200;50.570;7.244;2023-04-12T00:47:00;6.35;;;1.07;;
27833;SDS011;15200;50.570;7.244;2023-04-12T00:49:27;4.65;;;1.27;;
27833;SDS011;15200;50.570;7.244;2023-04-12T00:52:00;3.60;;;1.30;;
27833;SDS011;15200;50.570;7.244;2023-04-12T00:54:29;4.03;;;1.15;;
27833;SDS011;15200;50.570;7.244;2023-04-12T00:56:58;4.42;;;1.10;;
27833;SDS011;15200;50.570;7.244;2023-04-12T00:59:25;4.78;;;0.90;;
27833;SDS011;15200;50.570;7.244;2023-04-12T01:01:58;3.80;;;1.30;;
27833;SDS011;15200;50.570;7.244;2023-04-12T01:04:22;3.60;;;1.12;;
27833;SDS011;15200;50.570;7.244;2023-04-12T01:12:15;6.40;;;1.20;;
27833;SDS011;15200;50.570;7.244;2023-04-12T01:14:53;5.78;;;1.55;;
27833;SDS011;15200;50.570;7.244;2023-04-12T01:17:17;3.10;;;1.22;;
27833;SDS011;15200;50.570;7.244;2023-04-12T01:20:04;4.03;;;1.20;;
27833;SDS011;15200;50.570;7.244;2023-04-12T01:22:47;4.55;;;1.52;;
27833;SDS011;15200;50.570;7.244;2023-04-12T01:25:33;9.78;;;1.70;;
27833;SDS011;15200;50.570;7.244;2023-04-12T01:28:04;4.62;;;1.35;;
27833;SDS011;15200;50.570;7.244;2023-04-12T01:30:31;4.08;;;1.20;;
27833;SDS011;15200;50.570;7.244;2023-04-12T01:33:00;7.83;;;1.60;;
27833;SDS011;15200;50.570;7.244;2023-04-12T01:35:29;5.35;;;1.40;;
27833;SDS011;15200;50.570;7.244;2023-04-12T01:37:57;6.00;;;1.20;;
27833;SDS011;15200;50.570;7.244;2023-04-12T01:40:25;8.25;;;1.37;;
27833;SDS011;15200;50.570;7.244;2023-04-12T01:43:09;5.80;;;1.45;;
27833;SDS011;15200;50.570;7.244;2023-04-12T01:45:37;3.65;;;1.77;;
27833;SDS011;15200;50.570;7.244;2023-04-12T01:48:09;5.87;;;1.30;;
27833;SDS011;15200;50.570;7.244;2023-04-12T01:50:44;2.95;;;1.15;;
27833;SDS011;15200;50.570;7.244;2023-04-12T01:53:22;6.45;;;1.52;;
27833;SDS011;15200;50.570;7.244;2023-04-12T01:55:48;5.40;;;1.70;;
27833;SDS011;15200;50.570;7.244;2023-04-12T01:58:19;6.33;;;2.10;;
27833;SDS011;15200;50.570;7.244;2023-04-12T02:00:45;6.40;;;1.72;;
27833;SDS011;15200;50.570;7.244;2023-04-12T02:03:12;5.33;;;1.17;;
27833;SDS011;15200;50.570;7.244;2023-04-12T02:05:40;8.00;;;1.57;;
27833;SDS011;15200;50.570;7.244;2023-04-12T02:08:07;3.15;;;0.98;;
27833;SDS011;15200;50.570;7.244;2023-04-12T02:10:35;2.72;;;1.02;;
27833;SDS011;15200;50.570;7.244;2023-04-12T02:13:03;3.30;;;1.17;;
27833;SDS011;15200;50.570;7.244;2023-04-12T02:15:31;6.55;;;1.60;;
27833;SDS011;15200;50.570;7.244;2023-04-12T02:17:59;6.93;;;1.53;;
27833;SDS011;15200;50.570;7.244;2023-04-12T02:20:28;1.55;;;1.07;;
27833;SDS011;15200;50.570;7.244;2023-04-12T02:22:55;6.70;;;1.57;;
27833;SDS011;15200;50.570;7.244;2023-04-12T02:25:23;4.70;;;1.42;;
27833;SDS011;15200;50.570;7.244;2023-04-12T02:27:50;5.25;;;1.35;;
27833;SDS011;15200;50.570;7.244;2023-04-12T02:30:17;6.87;;;1.27;;
27833;SDS011;15200;50.570;7.244;2023-04-12T02:32:45;4.87;;;1.22;;
27833;SDS011;15200;50.570;7.244;2023-04-12T02:35:13;4.83;;;1.47;;
27833;SDS011;15200;50.570;7.244;2023-04-12T02:37:45;2.30;;;1.22;;
27833;SDS011;15200;50.570;7.244;2023-04-12T02:40:13;8.83;;;1.82;;
27833;SDS011;15200;50.570;7.244;2023-04-12T02:42:42;4.00;;;1.20;;
27833;SDS011;15200;50.570;7.244;2023-04-12T02:45:10;5.92;;;1.70;;
27833;SDS011;15200;50.570;7.244;2023-04-12T02:47:37;3.47;;;1.30;;
27833;SDS011;15200;50.570;7.244;2023-04-12T02:50:06;5.92;;;1.15;;
27833;SDS011;15200;50.570;7.244;2023-04-12T02:52:33;4.92;;;1.72;;
27833;SDS011;15200;50.570;7.244;2023-04-12T02:55:00;4.10;;;1.40;;
27833;SDS011;15200;50.570;7.244;2023-04-12T02:57:28;7.42;;;1.82;;
27833;SDS011;15200;50.570;7.244;2023-04-12T02:59:55;6.85;;;1.75;;
27833;SDS011;15200;50.570;7.244;2023-04-12T03:02:23;6.22;;;1.22;;
27833;SDS011;15200;50.570;7.244;2023-04-12T03:04:51;5.30;;;1.77;;
27833;SDS011;15200;50.570;7.244;2023-04-12T03:07:19;8.53;;;1.80;;
27833;SDS011;15200;50.570;7.244;2023-04-12T03:09:46;7.67;;;1.87;;
27833;SDS011;15200;50.570;7.244;2023-04-12T03:12:15;4.40;;;1.50;;
27833;SDS011;15200;50.570;7.244;2023-04-12T03:14:42;5.62;;;2.10;;
27833;SDS011;15200;50.570;7.244;2023-04-12T03:17:09;7.65;;;2.15;;
27833;SDS011;15200;50.570;7.244;2023-04-12T03:19:37;8.33;;;2.02;;
27833;SDS011;15200;50.570;7.244;2023-04-12T03:22:04;2.10;;;1.30;;
27833;SDS011;15200;50.570;7.244;2023-04-12T03:24:32;4.70;;;1.47;;
27833;SDS011;15200;50.570;7.244;2023-04-12T03:27:00;3.60;;;1.57;;
27833;SDS011;15200;50.570;7.244;2023-04-12T03:29:28;5.70;;;1.83;;
27833;SDS011;15200;50.570;7.244;2023-04-12T03:31:56;5.33;;;2.00;;
27833;SDS011;15200;50.570;7.244;2023-04-12T03:34:24;4.47;;;1.60;;
27833;SDS011;15200;50.570;7.244;2023-04-12T03:36:54;6.00;;;1.75;;
27833;SDS011;15200;50.570;7.244;2023-04-12T03:39:21;4.92;;;1.72;;
27833;SDS011;15200;50.570;7.244;2023-04-12T03:41:48;8.03;;;2.00;;
27833;SDS011;15200;50.570;7.244;2023-04-12T03:44:16;4.27;;;1.63;;
27833;SDS011;15200;50.570;7.244;2023-04-12T03:46:44;6.22;;;2.15;;
27833;SDS011;15200;50.570;7.244;2023-04-12T03:49:11;4.65;;;1.52;;
27833;SDS011;15200;50.570;7.244;2023-04-12T03:51:39;4.87;;;1.35;;
27833;SDS011;15200;50.570;7.244;2023-04-12T03:54:09;2.47;;;1.37;;
27833;SDS011;15200;50.570;7.244;2023-04-12T03:56:36;2.67;;;1.55;;
27833;SDS011;15200;50.570;7.244;2023-04-12T03:59:04;2.42;;;1.27;;
27833;SDS011;15200;50.570;7.244;2023-04-12T04:01:33;3.40;;;1.45;;
27833;SDS011;15200;50.570;7.244;2023-04-12T04:04:00;3.65;;;1.35;;
27833;SDS011;15200;50.570;7.244;2023-04-12T04:06:28;2.62;;;1.10;;
27833;SDS011;15200;50.570;7.244;2023-04-12T04:08:57;2.17;;;1.25;;
27833;SDS011;15200;50.570;7.244;2023-04-12T04:11:26;3.83;;;1.30;;
27833;SDS011;15200;50.570;7.244;2023-04-12T04:13:54;3.87;;;1.25;;
27833;SDS011;15200;50.570;7.244;2023-04-12T04:16:21;2.70;;;1.00;;
27833;SDS011;15200;50.570;7.244;2023-04-12T04:18:49;2.90;;;1.00;;
27833;SDS011;15200;50.570;7.244;2023-04-12T04:21:16;2.80;;;1.27;;
27833;SDS011;15200;50.570;7.244;2023-04-12T04:23:44;3.42;;;1.40;;
27833;SDS011;15200;50.570;7.244;2023-04-12T04:26:13;2.45;;;1.07;;
27833;SDS011;15200;50.570;7.244;2023-04-12T04:28:42;2.27;;;1.10;;
27833;SDS011;15200;50.570;7.244;2023-04-12T04:31:11;2.55;;;1.17;;
27833;SDS011;15200;50.570;7.244;2023-04-12T04:33:39;3.40;;;1.05;;
27833;SDS011;15200;50.570;7.244;2023-04-12T04:36:07;3.37;;;1.42;;
27833;SDS011;15200;50.570;7.244;2023-04-12T04:38:35;3.00;;;1.42;;
27833;SDS011;15200;50.570;7.244;2023-04-12T04:41:02;2.50;;;1.20;;
27833;SDS011;15200;50.570;7.244;2023-04-12T04:43:30;8.90;;;1.20;;
27833;SDS011;15200;50.570;7.244;2023-04-12T04:45:59;3.08;;;1.10;;
27833;SDS011;15200;50.570;7.244;2023-04-12T04:48:27;2.42;;;1.17;;
27833;SDS011;15200;50.570;7.244;2023-04-12T04:50:55;4.20;;;1.27;;
27833;SDS011;15200;50.570;7.244;2023-04-12T04:53:22;3.72;;;1.15;;
27833;SDS011;15200;50.570;7.244;2023-04-12T04:55:55;2.05;;;0.93;;
27833;SDS011;15200;50.570;7.244;2023-04-12T04:58:18;1.95;;;1.22;;
27833;SDS011;15200;50.570;7.244;2023-04-12T05:00:46;1.87;;;1.10;;
27833;SDS011;15200;50.570;7.244;2023-04-12T05:03:14;1.77;;;1.10;;
27833;SDS011;15200;50.570;7.244;2023-04-12T05:05:41;2.45;;;0.90;;
27833;SDS011;15200;50.570;7.244;2023-04-12T05:08:09;2.65;;;1.25;;
27833;SDS011;15200;50.570;7.244;2023-04-12T05:10:36;3.52;;;1.52;;
27833;SDS011;15200;50.570;7.244;2023-04-12T05:13:03;2.83;;;1.10;;
27833;SDS011;15200;50.570;7.244;2023-04-12T05:15:31;3.62;;;1.10;;
27833;SDS011;15200;50.570;7.244;2023-04-12T05:17:58;2.15;;;1.12;;
27833;SDS011;15200;50.570;7.244;2023-04-12T05:20:25;1.25;;;0.90;;
27833;SDS011;15200;50.570;7.244;2023-04-12T05:22:53;2.35;;;1.20;;
27833;SDS011;15200;50.570;7.244;2023-04-12T05:25:22;3.15;;;1.25;;
27833;SDS011;15200;50.570;7.244;2023-04-12T05:27:49;3.17;;;1.22;;
27833;SDS011;15200;50.570;7.244;2023-04-12T05:30:16;2.60;;;0.93;;
27833;SDS011;15200;50.570;7.244;2023-04-12T05:32:43;4.03;;;1.10;;
27833;SDS011;15200;50.570;7.244;2023-04-12T05:35:11;3.25;;;1.07;;
27833;SDS011;15200;50.570;7.244;2023-04-12T05:37:38;1.40;;;1.00;;
27833;SDS011;15200;50.570;7.244;2023-04-12T05:40:06;2.65;;;1.40;;
27833;SDS011;15200;50.570;7.244;2023-04-12T05:42:35;4.10;;;1.30;;
27833;SDS011;15200;50.570;7.244;2023-04-12T05:45:03;2.80;;;1.20;;
27833;SDS011;15200;50.570;7.244;2023-04-12T05:47:30;2.75;;;1.57;;
27833;SDS011;15200;50.570;7.244;2023-04-12T05:49:58;2.22;;;1.17;;
27833;SDS011;15200;50.570;7.244;2023-04-12T05:52:25;3.50;;;1.20;;
27833;SDS011;15200;50.570;7.244;2023-04-12T05:54:52;7.55;;;1.40;;
27833;SDS011;15200;50.570;7.244;2023-04-12T05:57:20;3.60;;;1.27;;
27833;SDS011;15200;50.570;7.244;2023-04-12T05:59:47;1.05;;;0.90;;
27833;SDS011;15200;50.570;7.244;2023-04-12T06:02:14;1.10;;;1.00;;
27833;SDS011;15200;50.570;7.244;2023-04-12T06:04:42;1.98;;;1.02;;
27833;SDS011;15200;50.570;7.244;2023-04-12T06:07:09;8.03;;;1.50;;
27833;SDS011;15200;50.570;7.244;2023-04-12T06:09:36;3.98;;;1.25;;
27833;SDS011;15200;50.570;7.244;2023-04-12T06:12:04;1.95;;;1.12;;
27833;SDS011;15200;50.570;7.244;2023-04-12T06:14:31;3.15;;;1.20;;
27833;SDS011;15200;50.570;7.244;2023-04-12T06:16:58;2.42;;;1.00;;
27833;SDS011;15200;50.570;7.244;2023-04-12T06:19:26;3.85;;;1.40;;
27833;SDS011;15200;50.570;7.244;2023-04-12T06:21:53;4.15;;;1.20;;
27833;SDS011;15200;50.570;7.244;2023-04-12T06:24:21;1.85;;;1.10;;
27833;SDS011;15200;50.570;7.244;2023-04-12T06:26:48;4.00;;;1.60;;
27833;SDS011;15200;50.570;7.244;2023-04-12T06:29:16;3.40;;;1.05;;
27833;SDS011;15200;50.570;7.244;2023-04-12T06:31:44;2.00;;;1.20;;
27833;SDS011;15200;50.570;7.244;2023-04-12T06:34:11;2.15;;;1.20;;
27833;SDS011;15200;50.570;7.244;2023-04-12T06:36:38;2.87;;;1.12;;
27833;SDS011;15200;50.570;7.244;2023-04-12T06:39:07;3.33;;;1.15;;
27833;SDS011;15200;50.570;7.244;2023-04-12T06:41:34;5.50;;;1.57;;
27833;SDS011;15200;50.570;7.244;2023-04-12T06:44:02;3.47;;;1.22;;
27833;SDS011;15200;50.570;7.244;2023-04-12T06:46:29;1.92;;;1.12;;
27833;SDS011;15200;50.570;7.244;2023-04-12T06:48:57;2.03;;;0.90;;
27833;SDS011;15200;50.570;7.244;2023-04-12T06:51:24;2.97;;;1.07;;
27833;SDS011;15200;50.570;7.244;2023-04-12T06:53:51;1.27;;;1.00;;
27833;SDS011;15200;50.570;7.244;2023-04-12T06:56:19;1.43;;;0.90;;
27833;SDS011;15200;50.570;7.244;2023-04-12T06:58:46;4.08;;;1.02;;
27833;SDS011;15200;50.570;7.244;2023-04-12T07:01:13;2.20;;;1.12;;
27833;SDS011;15200;50.570;7.244;2023-04-12T07:03:40;1.17;;;1.02;;
27833;SDS011;15200;50.570;7.244;2023-04-12T07:06:08;3.20;;;1.10;;
27833;SDS011;15200;50.570;7.244;2023-04-12T07:08:35;4.30;;;1.30;;
27833;SDS011;15200;50.570;7.244;2023-04-12T07:11:03;4.33;;;1.70;;
27833;SDS011;15200;50.570;7.244;2023-04-12T07:13:30;1.07;;;0.88;;
27833;SDS011;15200;50.570;7.244;2023-04-12T07:15:57;1.22;;;1.00;;
27833;SDS011;15200;50.570;7.244;2023-04-12T07:18:26;2.40;;;0.80;;
27833;SDS011;15200;50.570;7.244;2023-04-12T07:20:53;2.70;;;0.90;;
27833;SDS011;15200;50.570;7.244;2023-04-12T07:23:22;1.42;;;0.82;;
27833;SDS011;15200;50.570;7.244;2023-04-12T07:25:50;1.60;;;1.05;;
27833;SDS011;15200;50.570;7.244;2023-04-12T07:28:18;1.25;;;0.98;;
27833;SDS011;15200;50.570;7.244;2023-04-12T07:30:46;1.57;;;0.70;;
27833;SDS011;15200;50.570;7.244;2023-04-12T07:33:13;1.00;;;0.80;;
27833;SDS011;15200;50.570;7.244;2023-04-12T07:35:40;2.08;;;1.00;;
27833;SDS011;15200;50.570;7.244;2023-04-12T07:38:08;3.80;;;0.98;;
27833;SDS011;15200;50.570;7.244;2023-04-12T07:40:35;1.40;;;0.90;;
27833;SDS011;15200;50.570;7.244;2023-04-12T07:43:03;3.15;;;0.93;;
27833;SDS011;15200;50.570;7.244;2023-04-12T07:45:30;1.70;;;0.90;;
27833;SDS011;15200;50.570;7.244;2023-04-12T07:47:57;1.40;;;0.97;;
27833;SDS011;15200;50.570;7.244;2023-04-12T07:50:24;2.15;;;0.70;;
27833;SDS011;15200;50.570;7.244;2023-04-12T07:52:52;1.22;;;0.78;;
27833;SDS011;15200;50.570;7.244;2023-04-12T07:55:19;2.20;;;0.90;;
27833;SDS011;15200;50.570;7.244;2023-04-12T07:57:47;0.78;;;0.50;;
27833;SDS011;15200;50.570;7.244;2023-04-12T08:00:14;1.17;;;0.73;;
27833;SDS011;15200;50.570;7.244;2023-04-12T08:02:43;1.82;;;1.02;;
27833;SDS011;15200;50.570;7.244;2023-04-12T08:05:10;1.62;;;1.00;;
27833;SDS011;15200;50.570;7.244;2023-04-12T08:07:37;2.08;;;0.93;;
27833;SDS011;15200;50.570;7.244;2023-04-12T08:10:05;1.85;;;1.00;;
27833;SDS011;15200;50.570;7.244;2023-04-12T08:12:32;3.27;;;1.20;;
27833;SDS011;15200;50.570;7.244;2023-04-12T08:15:00;1.90;;;1.17;;
27833;SDS011;15200;50.570;7.244;2023-04-12T08:17:27;2.08;;;1.20;;
27833;SDS011;15200;50.570;7.244;2023-04-12T08:19:54;2.77;;;1.17;;
27833;SDS011;15200;50.570;7.244;2023-04-12T08:22:22;5.25;;;1.07;;
27833;SDS011;15200;50.570;7.244;2023-04-12T08:24:49;1.80;;;1.37;;
27833;SDS011;15200;50.570;7.244;2023-04-12T08:27:17;1.80;;;1.05;;
27833;SDS011;15200;50.570;7.244;2023-04-12T08:29:44;2.47;;;1.40;;
27833;SDS011;15200;50.570;7.244;2023-04-12T08:32:11;1.42;;;1.25;;
27833;SDS011;15200;50.570;7.244;2023-04-12T08:34:39;5.42;;;1.20;;
27833;SDS011;15200;50.570;7.244;2023-04-12T08:37:06;6.87;;;1.50;;
27833;SDS011;15200;50.570;7.244;2023-04-12T08:39:33;3.02;;;1.45;;
27833;SDS011;15200;50.570;7.244;2023-04-12T08:42:03;3.17;;;1.90;;
27833;SDS011;15200;50.570;7.244;2023-04-12T08:44:34;1.90;;;1.17;;
27833;SDS011;15200;50.570;7.244;2023-04-12T08:47:02;2.47;;;1.17;;
27833;SDS011;15200;50.570;7.244;2023-04-12T08:49:33;0.95;;;0.88;;
27833;SDS011;15200;50.570;7.244;2023-04-12T08:52:04;4.62;;;0.90;;
27833;SDS011;15200;50.570;7.244;2023-04-12T08:54:32;1.02;;;0.70;;
27833;SDS011;15200;50.570;7.244;2023-04-12T08:57:00;4.03;;;1.42;;
27833;SDS011;15200;50.570;7.244;2023-04-12T08:59:28;2.05;;;1.32;;
27833;SDS011;15200;50.570;7.244;2023-04-12T09:01:56;1.67;;;0.93;;
27833;SDS011;15200;50.570;7.244;2023-04-12T09:04:24;1.45;;;1.07;;
27833;SDS011;15200;50.570;7.244;2023-04-12T09:06:55;2.08;;;0.82;;
27833;SDS011;15200;50.570;7.244;2023-04-12T09:12:08;1.92;;;0.90;;
27833;SDS011;15200;50.570;7.244;2023-04-12T09:14:36;2.02;;;0.90;;
27833;SDS011;15200;50.570;7.244;2023-04-12T09:17:04;2.27;;;1.12;;
27833;SDS011;15200;50.570;7.244;2023-04-12T09:19:32;1.07;;;0.77;;
27833;SDS011;15200;50.570;7.244;2023-04-12T09:22:00;2.00;;;1.40;;
27833;SDS011;15200;50.570;7.244;2023-04-12T09:24:28;4.42;;;0.80;;
27833;SDS011;15200;50.570;7.244;2023-04-12T09:27:05;1.27;;;0.93;;
27833;SDS011;15200;50.570;7.244;2023-04-12T09:29:34;0.95;;;0.70;;
27833;SDS011;15200;50.570;7.244;2023-04-12T09:32:02;2.05;;;0.80;;
27833;SDS011;15200;50.570;7.244;2023-04-12T09:34:30;1.57;;;0.88;;
27833;SDS011;15200;50.570;7.244;2023-04-12T09:36:57;1.40;;;1.00;;
27833;SDS011;15200;50.570;7.244;2023-04-12T09:39:31;1.42;;;0.93;;
27833;SDS011;15200;50.570;7.244;2023-04-12T09:42:11;2.35;;;1.00;;
27833;SDS011;15200;50.570;7.244;2023-04-12T09:44:41;1.87;;;0.90;;
27833;SDS011;15200;50.570;7.244;2023-04-12T09:47:08;3.95;;;1.25;;
27833;SDS011;15200;50.570;7.244;2023-04-12T09:49:37;2.30;;;0.88;;
27833;SDS011;15200;50.570;7.244;2023-04-12T09:52:06;1.67;;;1.25;;
27833;SDS011;15200;50.570;7.244;2023-04-12T09:54:52;1.15;;;1.05;;
27833;SDS011;15200;50.570;7.244;2023-04-12T09:57:05;2.70;;;1.50;;
27833;SDS011;15200;50.570;7.244;2023-04-12T09:59:37;1.98;;;1.60;;
27833;SDS011;15200;50.570;7.244;2023-04-12T10:02:14;2.00;;;1.15;;
27833;SDS011;15200;50.570;7.244;2023-04-12T10:04:42;3.85;;;2.02;;
27833;SDS011;15200;50.570;7.244;2023-04-12T10:07:10;3.85;;;1.67;;
27833;SDS011;15200;50.570;7.244;2023-04-12T10:09:38;4.90;;;1.85;;
27833;SDS011;15200;50.570;7.244;2023-04-12T10:12:06;2.85;;;1.65;;
27833;SDS011;15200;50.570;7.244;2023-04-12T10:14:34;2.50;;;1.72;;
27833;SDS011;15200;50.570;7.244;2023-04-12T10:17:02;2.58;;;1.52;;
27833;SDS011;15200;50.570;7.244;2023-04-12T10:19:30;2.05;;;1.60;;
27833;SDS011;15200;50.570;7.244;2023-04-12T10:21:59;3.55;;;1.40;;
27833;SDS011;15200;50.570;7.244;2023-04-12T10:24:27;2.17;;;1.52;;
27833;SDS011;15200;50.570;7.244;2023-04-12T10:26:55;1.57;;;1.40;;
27833;SDS011;15200;50.570;7.244;2023-04-12T10:29:27;2.33;;;1.60;;
27833;SDS011;15200;50.570;7.244;2023-04-12T10:31:56;1.40;;;1.00;;
27833;SDS011;15200;50.570;7.244;2023-04-12T10:34:28;2.58;;;1.45;;
27833;SDS011;15200;50.570;7.244;2023-04-12T10:36:56;1.32;;;1.22;;
27833;SDS011;15200;50.570;7.244;2023-04-12T10:39:37;2.05;;;1.45;;
27833;SDS011;15200;50.570;7.244;2023-04-12T10:42:21;3.42;;;1.65;;
27833;SDS011;15200;50.570;7.244;2023-04-12T10:44:50;3.33;;;1.20;;
27833;SDS011;15200;50.570;7.244;2023-04-12T10:48:03;2.50;;;1.12;;
27833;SDS011;15200;50.570;7.244;2023-04-12T10:50:18;1.05;;;0.93;;
27833;SDS011;15200;50.570;7.244;2023-04-12T10:52:16;1.70;;;1.32;;
27833;SDS011;15200;50.570;7.244;2023-04-12T10:54:44;1.77;;;1.20;;
27833;SDS011;15200;50.570;7.244;2023-04-12T10:57:39;0.65;;;0.55;;
27833;SDS011;15200;50.570;7.244;2023-04-12T10:59:50;1.30;;;1.00;;
27833;SDS011;15200;50.570;7.244;2023-04-12T11:02:19;2.10;;;1.10;;
27833;SDS011;15200;50.570;7.244;2023-04-12T11:07:24;3.27;;;1.22;;
27833;SDS011;15200;50.570;7.244;2023-04-12T11:09:55;1.57;;;0.90;;
27833;SDS011;15200;50.570;7.244;2023-04-12T11:12:22;2.52;;;1.80;;
27833;SDS011;15200;50.570;7.244;2023-04-12T11:14:51;2.17;;;1.12;;
27833;SDS011;15200;50.570;7.244;2023-04-12T11:17:23;1.40;;;0.78;;
27833;SDS011;15200;50.570;7.244;2023-04-12T11:19:48;2.20;;;1.30;;
27833;SDS011;15200;50.570;7.244;2023-04-12T11:22:18;1.60;;;0.60;;
27833;SDS011;15200;50.570;7.244;2023-04-12T11:24:46;0.53;;;0.53;;
27833;SDS011;15200;50.570;7.244;2023-04-12T11:27:14;2.40;;;1.32;;
27833;SDS011;15200;50.570;7.244;2023-04-12T11:29:42;1.98;;;1.20;;
27833;SDS011;15200;50.570;7.244;2023-04-12T11:32:10;1.55;;;0.60;;
27833;SDS011;15200;50.570;7.244;2023-04-12T11:34:42;1.40;;;0.68;;
27833;SDS011;15200;50.570;7.244;2023-04-12T11:37:09;0.53;;;0.53;;
27833;SDS011;15200;50.570;7.244;2023-04-12T11:39:41;0.60;;;0.50;;
27833;SDS011;15200;50.570;7.244;2023-04-12T11:42:12;1.17;;;0.60;;
27833;SDS011;15200;50.570;7.244;2023-04-12T11:44:41;1.42;;;0.40;;
27833;SDS011;15200;50.570;7.244;2023-04-12T11:47:17;1.20;;;0.50;;
27833;SDS011;15200;50.570;7.244;2023-04-12T11:49:49;1.17;;;0.75;;
27833;SDS011;15200;50.570;7.244;2023-04-12T11:52:12;1.12;;;0.40;;
27833;SDS011;15200;50.570;7.244;2023-04-12T11:54:41;0.65;;;0.50;;
27833;SDS011;15200;50.570;7.244;2023-04-12T11:57:09;1.98;;;0.62;;
27833;SDS011;15200;50.570;7.244;2023-04-12T11:59:38;0.50;;;0.50;;
27833;SDS011;15200;50.570;7.244;2023-04-12T12:02:06;1.12;;;0.60;;
27833;SDS011;15200;50.570;7.244;2023-04-12T12:04:34;1.37;;;0.70;;
27833;SDS011;15200;50.570;7.244;2023-04-12T12:07:02;0.80;;;0.72;;
27833;SDS011;15200;50.570;7.244;2023-04-12T12:09:31;3.33;;;0.88;;
27833;SDS011;15200;50.570;7.244;2023-04-12T12:11:58;2.55;;;0.68;;
27833;SDS011;15200;50.570;7.244;2023-04-12T12:14:26;1.42;;;0.80;;
27833;SDS011;15200;50.570;7.244;2023-04-12T12:16:55;1.70;;;0.90;;
27833;SDS011;15200;50.570;7.244;2023-04-12T12:19:26;1.47;;;1.00;;
27833;SDS011;15200;50.570;7.244;2023-04-12T12:22:03;2.47;;;1.10;;
27833;SDS011;15200;50.570;7.244;2023-04-12T12:24:23;1.25;;;0.82;;
27833;SDS011;15200;50.570;7.244;2023-04-12T12:26:50;0.55;;;0.55;;
27833;SDS011;15200;50.570;7.244;2023-04-12T12:29:17;1.72;;;0.80;;
27833;SDS011;15200;50.570;7.244;2023-04-12T12:31:45;0.82;;;0.60;;
27833;SDS011;15200;50.570;7.244;2023-04-12T12:34:14;0.60;;;0.60;;
27833;SDS011;15200;50.570;7.244;2023-04-12T12:36:45;1.25;;;0.47;;
27833;SDS011;15200;50.570;7.244;2023-04-12T12:39:12;1.45;;;0.75;;
27833;SDS011;15200;50.570;7.244;2023-04-12T12:41:40;2.05;;;0.57;;
27833;SDS011;15200;50.570;7.244;2023-04-12T12:44:07;1.05;;;0.68;;
27833;SDS011;15200;50.570;7.244;2023-04-12T12:46:36;1.37;;;0.62;;
27833;SDS011;15200;50.570;7.244;2023-04-12T12:49:03;0.70;;;0.50;;
27833;SDS011;15200;50.570;7.244;2023-04-12T12:51:31;2.20;;;0.65;;
27833;SDS011;15200;50.570;7.244;2023-04-12T12:53:58;0.93;;;0.50;;
27833;SDS011;15200;50.570;7.244;2023-04-12T12:56:26;0.90;;;0.70;;
27833;SDS011;15200;50.570;7.244;2023-04-12T12:58:53;0.80;;;0.60;;
27833;SDS011;15200;50.570;7.244;2023-04-12T13:01:20;1.52;;;0.70;;
27833;SDS011;15200;50.570;7.244;2023-04-12T13:03:48;1.12;;;0.80;;
27833;SDS011;15200;50.570;7.244;2023-04-12T13:06:15;1.42;;;0.95;;
27833;SDS011;15200;50.570;7.244;2023-04-12T13:08:42;0.82;;;0.57;;
27833;SDS011;15200;50.570;7.244;2023-04-12T13:11:10;1.22;;;0.82;;
27833;SDS011;15200;50.570;7.244;2023-04-12T13:13:37;0.95;;;0.70;;
27833;SDS011;15200;50.570;7.244;2023-04-12T13:16:04;1.98;;;0.82;;
27833;SDS011;15200;50.570;7.244;2023-04-12T13:18:32;1.05;;;0.70;;
27833;SDS011;15200;50.570;7.244;2023-04-12T13:20:59;2.95;;;0.85;;
27833;SDS011;15200;50.570;7.244;2023-04-12T13:23:26;3.45;;;0.60;;
27833;SDS011;15200;50.570;7.244;2023-04-12T13:25:54;3.92;;;1.10;;
27833;SDS011;15200;50.570;7.244;2023-04-12T13:28:21;1.15;;;0.60;;
27833;SDS011;15200;50.570;7.244;2023-04-12T13:30:48;1.17;;;0.60;;
27833;SDS011;15200;50.570;7.244;2023-04-12T13:33:16;3.55;;;0.90;;
27833;SDS011;15200;50.570;7.244;2023-04-12T13:35:43;2.05;;;0.75;;
27833;SDS011;15200;50.570;7.244;2023-04-12T13:38:11;2.90;;;1.12;;
27833;SDS011;15200;50.570;7.244;2023-04-12T13:40:39;2.10;;;1.22;;
27833;SDS011;15200;50.570;7.244;2023-04-12T13:43:08;2.00;;;0.82;;
27833;SDS011;15200;50.570;7.244;2023-04-12T13:45:35;1.07;;;0.60;;
27833;SDS011;15200;50.570;7.244;2023-04-12T13:48:02;2.22;;;0.80;;
27833;SDS011;15200;50.570;7.244;2023-04-12T13:50:30;1.25;;;0.50;;
27833;SDS011;15200;50.570;7.244;2023-04-12T13:52:57;1.85;;;0.50;;
27833;SDS011;15200;50.570;7.244;2023-04-12T13:55:24;1.25;;;0.68;;
27833;SDS011;15200;50.570;7.244;2023-04-12T13:57:52;2.17;;;0.80;;
27833;SDS011;15200;50.570;7.244;2023-04-12T14:00:19;4.15;;;0.90;;
27833;SDS011;15200;50.570;7.244;2023-04-12T14:02:47;0.70;;;0.70;;
27833;SDS011;15200;50.570;7.244;2023-04-12T14:08:01;1.82;;;1.12;;
27833;SDS011;15200;50.570;7.244;2023-04-12T14:10:28;1.67;;;0.90;;
27833;SDS011;15200;50.570;7.244;2023-04-12T14:12:55;2.08;;;0.90;;
27833;SDS011;15200;50.570;7.244;2023-04-12T14:15:23;2.08;;;0.80;;
27833;SDS011;15200;50.570;7.244;2023-04-12T14:17:50;1.35;;;0.70;;
27833;SDS011;15200;50.570;7.244;2023-04-12T14:20:17;1.05;;;0.57;;
27833;SDS011;15200;50.570;7.244;2023-04-12T14:22:45;0.85;;;0.70;;
27833;SDS011;15200;50.570;7.244;2023-04-12T14:25:12;1.32;;;0.70;;
27833;SDS011;15200;50.570;7.244;2023-04-12T14:27:40;0.70;;;0.40;;
27833;SDS011;15200;50.570;7.244;2023-04-12T14:30:07;1.82;;;0.70;;
27833;SDS011;15200;50.570;7.244;2023-04-12T14:32:34;1.32;;;0.50;;
27833;SDS011;15200;50.570;7.244;2023-04-12T14:35:02;1.57;;;0.57;;
27833;SDS011;15200;50.570;7.244;2023-04-12T14:37:30;1.50;;;0.62;;
27833;SDS011;15200;50.570;7.244;2023-04-12T14:39:58;1.50;;;0.50;;
27833;SDS011;15200;50.570;7.244;2023-04-12T14:42:25;1.17;;;0.50;;
27833;SDS011;15200;50.570;7.244;2023-04-12T14:44:53;1.60;;;0.42;;
27833;SDS011;15200;50.570;7.244;2023-04-12T14:47:20;1.65;;;0.40;;
27833;SDS011;15200;50.570;7.244;2023-04-12T14:49:47;1.95;;;0.50;;
27833;SDS011;15200;50.570;7.244;2023-04-12T14:52:15;1.32;;;0.45;;
27833;SDS011;15200;50.570;7.244;2023-04-12T14:54:42;0.95;;;0.30;;
27833;SDS011;15200;50.570;7.244;2023-04-12T14:57:10;0.80;;;0.37;;
27833;SDS011;15200;50.570;7.244;2023-04-12T14:59:37;3.20;;;0.60;;
27833;SDS011;15200;50.570;7.244;2023-04-12T15:02:05;0.98;;;0.30;;
27833;SDS011;15200;50.570;7.244;2023-04-12T15:04:32;0.68;;;0.35;;
27833;SDS011;15200;50.570;7.244;2023-04-12T15:06:59;1.30;;;0.57;;